sensor_id;sensor_type;location;lat;lon;timestamp;temperature;humidity
32811;DHT22;65470;47.324;8.548;2023-03-02T00:01:58;4.90;99.90
32811;DHT22;65470;47.324;8.548;2023-03-02T00:04:27;4.90;99.90
32811;DHT22;65470;47.324;8.548;2023-03-02T00:06:56;4.90;99.90
32811;DHT22;65470;47.324;8.548;2023-03-02T00:09:22;5.00;99.90
32811;DHT22;65470;47.324;8.548;2023-03-02T00:11:49;4.90;99.90
32811;DHT22;65470;47.324;8.548;2023-03-02T00:14:15;4.90;99.90
32811;DHT22;65470;47.324;8.548;2023-03-02T00:16:41;4.90;99.90
32811;DHT22;65470;47.324;8.548;2023-03-02T00:19:07;4.90;99.90
32811;DHT22;65470;47.324;8.548;2023-03-02T00:21:33;4.90;99.90
32811;DHT22;65470;47.324;8.548;2023-03-02T00:23:58;4.90;99.90
32811;DHT22;65470;47.324;8.548;2023-03-02T00:26:24;5.00;99.90
32811;DHT22;65470;47.324;8.548;2023-03-02T00:28:50;5.00;99.90
32811;DHT22;65470;47.324;8.548;2023-03-02T00:31:15;5.00;99.90
32811;DHT22;65470;47.324;8.548;2023-03-02T00:33:41;5.00;99.90
32811;DHT22;65470;47.324;8.548;2023-03-02T00:36:14;5.00;99.90
32811;DHT22;65470;47.324;8.548;2023-03-02T00:38:40;5.00;99.90
32811;DHT22;65470;47.324;8.548;2023-03-02T00:41:06;5.00;99.90
32811;DHT22;65470;47.324;8.548;2023-03-02T00:43:31;5.00;99.90
32811;DHT22;65470;47.324;8.548;2023-03-02T00:45:57;4.90;99.90
32811;DHT22;65470;47.324;8.548;2023-03-02T00:48:23;5.00;99.90
32811;DHT22;65470;47.324;8.548;2023-03-02T00:50:49;5.00;99.90
32811;DHT22;65470;47.324;8.548;2023-03-02T00:53:15;5.00;99.90
32811;DHT22;65470;47.324;8.548;2023-03-02T00:55:52;4.90;99.90
32811;DHT22;65470;47.324;8.548;2023-03-02T00:58:17;5.00;99.90
32811;DHT22;65470;47.324;8.548;2023-03-02T01:00:43;4.90;99.90
32811;DHT22;65470;47.324;8.548;2023-03-02T01:03:09;4.90;99.90
32811;DHT22;65470;47.324;8.548;2023-03-02T01:05:37;4.80;99.90
32811;DHT22;65470;47.324;8.548;2023-03-02T01:08:03;4.80;99.90
32811;DHT22;65470;47.324;8.548;2023-03-02T01:10:31;4.80;99.90
32811;DHT22;65470;47.324;8.548;2023-03-02T01:12:57;4.80;99.90
32811;DHT22;65470;47.324;8.548;2023-03-02T01:15:22;4.80;99.90
32811;DHT22;65470;47.324;8.548;2023-03-02T01:17:48;4.80;99.90
32811;DHT22;65470;47.324;8.548;2023-03-02T01:20:14;4.80;99.90
32811;DHT22;65470;47.324;8.548;2023-03-02T01:22:40;4.80;99.90
32811;DHT22;65470;47.324;8.548;2023-03-02T01:25:07;4.80;99.90
32811;DHT22;65470;47.324;8.548;2023-03-02T01:27:33;4.90;99.90
32811;DHT22;65470;47.324;8.548;2023-03-02T01:29:59;4.90;99.90
32811;DHT22;65470;47.324;8.548;2023-03-02T01:32:24;4.90;99.90
32811;DHT22;65470;47.324;8.548;2023-03-02T01:34:50;4.90;99.90
32811;DHT22;65470;47.324;8.548;2023-03-02T01:37:16;4.90;99.90
32811;DHT22;65470;47.324;8.548;2023-03-02T01:39:41;4.80;99.90
32811;DHT22;65470;47.324;8.548;2023-03-02T01:42:07;4.80;99.90
32811;DHT22;65470;47.324;8.548;2023-03-02T01:47:02;4.80;99.90
32811;DHT22;65470;47.324;8.548;2023-03-02T01:49:31;4.80;99.90
32811;DHT22;65470;47.324;8.548;2023-03-02T01:52:01;4.80;99.90
32811;DHT22;65470;47.324;8.548;2023-03-02T01:54:27;4.90;99.90
32811;DHT22;65470;47.324;8.548;2023-03-02T01:56:58;4.90;99.90
32811;DHT22;65470;47.324;8.548;2023-03-02T01:59:25;4.90;99.90
32811;DHT22;65470;47.324;8.548;2023-03-02T02:01:55;4.90;99.90
32811;DHT22;65470;47.324;8.548;2023-03-02T02:04:22;4.90;99.90
32811;DHT22;65470;47.324;8.548;2023-03-02T02:06:50;4.90;99.90
32811;DHT22;65470;47.324;8.548;2023-03-02T02:09:20;4.90;99.90
32811;DHT22;65470;47.324;8.548;2023-03-02T02:11:47;4.90;99.90
32811;DHT22;65470;47.324;8.548;2023-03-02T02:14:13;4.90;99.90
32811;DHT22;65470;47.324;8.548;2023-03-02T02:16:39;4.90;99.90
32811;DHT22;65470;47.324;8.548;2023-03-02T02:21:47;4.90;99.90
32811;DHT22;65470;47.324;8.548;2023-03-02T02:24:24;4.80;99.90
32811;DHT22;65470;47.324;8.548;2023-03-02T02:26:54;4.80;99.90
32811;DHT22;65470;47.324;8.548;2023-03-02T02:29:33;4.80;99.90
32811;DHT22;65470;47.324;8.548;2023-03-02T02:32:18;4.80;99.90
32811;DHT22;65470;47.324;8.548;2023-03-02T02:34:51;4.80;99.90
32811;DHT22;65470;47.324;8.548;2023-03-02T02:37:25;4.80;99.90
32811;DHT22;65470;47.324;8.548;2023-03-02T02:39:52;4.80;99.90
32811;DHT22;65470;47.324;8.548;2023-03-02T02:42:28;4.80;99.90
32811;DHT22;65470;47.324;8.548;2023-03-02T02:44:58;4.80;99.90
32811;DHT22;65470;47.324;8.548;2023-03-02T02:47:25;4.70;99.90
32811;DHT22;65470;47.324;8.548;2023-03-02T02:49:54;4.70;99.90
32811;DHT22;65470;47.324;8.548;2023-03-02T02:52:23;4.70;99.90
32811;DHT22;65470;47.324;8.548;2023-03-02T02:54:52;4.70;99.90
32811;DHT22;65470;47.324;8.548;2023-03-02T02:57:19;4.80;99.90
32811;DHT22;65470;47.324;8.548;2023-03-02T02:59:58;4.70;99.90
32811;DHT22;65470;47.324;8.548;2023-03-02T03:02:57;4.80;99.90
32811;DHT22;65470;47.324;8.548;2023-03-02T03:06:03;4.70;99.90
32811;DHT22;65470;47.324;8.548;2023-03-02T03:11:12;4.60;99.90
32811;DHT22;65470;47.324;8.548;2023-03-02T03:13:40;4.60;99.90
32811;DHT22;65470;47.324;8.548;2023-03-02T03:16:10;4.60;99.90
32811;DHT22;65470;47.324;8.548;2023-03-02T03:18:37;4.60;99.90
32811;DHT22;65470;47.324;8.548;2023-03-02T03:21:03;4.50;99.90
32811;DHT22;65470;47.324;8.548;2023-03-02T03:23:29;4.50;99.90
32811;DHT22;65470;47.324;8.548;2023-03-02T03:25:55;4.60;99.90
32811;DHT22;65470;47.324;8.548;2023-03-02T03:28:20;4.60;99.90
32811;DHT22;65470;47.324;8.548;2023-03-02T03:30:46;4.60;99.90
32811;DHT22;65470;47.324;8.548;2023-03-02T03:33:11;4.70;99.90
32811;DHT22;65470;47.324;8.548;2023-03-02T03:35:38;4.70;99.90
32811;DHT22;65470;47.324;8.548;2023-03-02T03:38:05;4.70;99.90
32811;DHT22;65470;47.324;8.548;2023-03-02T03:40:31;4.70;99.90
32811;DHT22;65470;47.324;8.548;2023-03-02T03:42:59;4.70;99.90
32811;DHT22;65470;47.324;8.548;2023-03-02T03:45:25;4.70;99.90
32811;DHT22;65470;47.324;8.548;2023-03-02T03:47:51;4.70;99.90
32811;DHT22;65470;47.324;8.548;2023-03-02T03:50:16;4.70;99.90
32811;DHT22;65470;47.324;8.548;2023-03-02T03:52:42;4.70;99.90
32811;DHT22;65470;47.324;8.548;2023-03-02T03:55:08;4.70;99.90
32811;DHT22;65470;47.324;8.548;2023-03-02T03:57:34;4.70;99.90
32811;DHT22;65470;47.324;8.548;2023-03-02T03:59:59;4.70;99.90
32811;DHT22;65470;47.324;8.548;2023-03-02T04:02:25;4.60;99.90
32811;DHT22;65470;47.324;8.548;2023-03-02T04:04:50;4.70;99.90
32811;DHT22;65470;47.324;8.548;2023-03-02T04:07:16;4.70;99.90
32811;DHT22;65470;47.324;8.548;2023-03-02T04:09:42;4.70;99.90
32811;DHT22;65470;47.324;8.548;2023-03-02T04:12:08;4.70;99.90
32811;DHT22;65470;47.324;8.548;2023-03-02T04:14:35;4.70;99.90
32811;DHT22;65470;47.324;8.548;2023-03-02T04:17:01;4.70;99.90
32811;DHT22;65470;47.324;8.548;2023-03-02T04:19:30;4.70;99.90
32811;DHT22;65470;47.324;8.548;2023-03-02T04:21:55;4.60;99.90
32811;DHT22;65470;47.324;8.548;2023-03-02T04:24:22;4.60;99.90
32811;DHT22;65470;47.324;8.548;2023-03-02T04:26:49;4.50;99.90
32811;DHT22;65470;47.324;8.548;2023-03-02T04:29:16;4.50;99.90
32811;DHT22;65470;47.324;8.548;2023-03-02T04:31:42;4.50;99.90
32811;DHT22;65470;47.324;8.548;2023-03-02T04:34:08;4.50;99.90
32811;DHT22;65470;47.324;8.548;2023-03-02T04:36:36;4.50;99.90
32811;DHT22;65470;47.324;8.548;2023-03-02T04:39:04;4.50;99.90
32811;DHT22;65470;47.324;8.548;2023-03-02T04:41:30;4.40;99.90
32811;DHT22;65470;47.324;8.548;2023-03-02T04:43:55;4.30;99.90
32811;DHT22;65470;47.324;8.548;2023-03-02T04:46:24;4.30;99.90
32811;DHT22;65470;47.324;8.548;2023-03-02T04:48:51;4.40;99.90
32811;DHT22;65470;47.324;8.548;2023-03-02T04:51:22;4.30;99.90
32811;DHT22;65470;47.324;8.548;2023-03-02T04:53:50;4.30;99.90
32811;DHT22;65470;47.324;8.548;2023-03-02T04:56:16;4.20;99.90
32811;DHT22;65470;47.324;8.548;2023-03-02T04:58:42;4.20;99.90
32811;DHT22;65470;47.324;8.548;2023-03-02T05:01:09;4.20;99.90
32811;DHT22;65470;47.324;8.548;2023-03-02T05:03:34;4.20;99.90
32811;DHT22;65470;47.324;8.548;2023-03-02T05:06:00;4.10;99.90
32811;DHT22;65470;47.324;8.548;2023-03-02T05:08:28;4.10;99.90
32811;DHT22;65470;47.324;8.548;2023-03-02T05:10:54;4.10;99.90
32811;DHT22;65470;47.324;8.548;2023-03-02T05:13:19;4.10;99.90
32811;DHT22;65470;47.324;8.548;2023-03-02T05:15:45;4.00;99.90
32811;DHT22;65470;47.324;8.548;2023-03-02T05:18:11;4.00;99.90
32811;DHT22;65470;47.324;8.548;2023-03-02T05:20:37;4.00;99.90
32811;DHT22;65470;47.324;8.548;2023-03-02T05:23:06;4.00;99.90
32811;DHT22;65470;47.324;8.548;2023-03-02T05:25:34;4.00;99.90
32811;DHT22;65470;47.324;8.548;2023-03-02T05:28:00;4.00;99.90
32811;DHT22;65470;47.324;8.548;2023-03-02T05:30:27;4.00;99.90
32811;DHT22;65470;47.324;8.548;2023-03-02T05:32:53;4.10;99.90
32811;DHT22;65470;47.324;8.548;2023-03-02T05:35:19;4.10;99.90
32811;DHT22;65470;47.324;8.548;2023-03-02T05:37:45;4.10;99.90
32811;DHT22;65470;47.324;8.548;2023-03-02T05:40:17;4.10;99.90
32811;DHT22;65470;47.324;8.548;2023-03-02T05:42:43;4.20;99.90
32811;DHT22;65470;47.324;8.548;2023-03-02T05:45:21;4.30;99.90
32811;DHT22;65470;47.324;8.548;2023-03-02T05:47:47;4.30;99.90
32811;DHT22;65470;47.324;8.548;2023-03-02T05:50:13;4.30;99.90
32811;DHT22;65470;47.324;8.548;2023-03-02T05:52:38;4.40;99.90
32811;DHT22;65470;47.324;8.548;2023-03-02T05:55:04;4.50;99.90
32811;DHT22;65470;47.324;8.548;2023-03-02T05:57:30;4.50;99.90
32811;DHT22;65470;47.324;8.548;2023-03-02T05:59:56;4.50;99.90
32811;DHT22;65470;47.324;8.548;2023-03-02T06:02:21;4.50;99.90
32811;DHT22;65470;47.324;8.548;2023-03-02T06:04:47;4.60;99.90
32811;DHT22;65470;47.324;8.548;2023-03-02T06:07:12;4.60;99.90
32811;DHT22;65470;47.324;8.548;2023-03-02T06:09:39;4.60;99.90
32811;DHT22;65470;47.324;8.548;2023-03-02T06:12:05;4.70;99.90
32811;DHT22;65470;47.324;8.548;2023-03-02T06:14:31;4.70;99.90
32811;DHT22;65470;47.324;8.548;2023-03-02T06:16:57;4.70;99.90
32811;DHT22;65470;47.324;8.548;2023-03-02T06:19:22;4.80;99.90
32811;DHT22;65470;47.324;8.548;2023-03-02T06:21:48;4.80;99.90
32811;DHT22;65470;47.324;8.548;2023-03-02T06:24:14;4.80;99.90
32811;DHT22;65470;47.324;8.548;2023-03-02T06:26:39;4.80;99.90
32811;DHT22;65470;47.324;8.548;2023-03-02T06:29:05;4.90;99.90
32811;DHT22;65470;47.324;8.548;2023-03-02T06:31:32;4.90;99.90
32811;DHT22;65470;47.324;8.548;2023-03-02T06:33:58;4.90;99.90
32811;DHT22;65470;47.324;8.548;2023-03-02T06:36:23;4.90;99.90
32811;DHT22;65470;47.324;8.548;2023-03-02T06:38:49;5.00;99.90
32811;DHT22;65470;47.324;8.548;2023-03-02T06:41:15;5.00;99.90
32811;DHT22;65470;47.324;8.548;2023-03-02T06:43:41;5.00;99.90
32811;DHT22;65470;47.324;8.548;2023-03-02T06:46:06;5.10;99.90
32811;DHT22;65470;47.324;8.548;2023-03-02T06:48:32;5.10;99.90
32811;DHT22;65470;47.324;8.548;2023-03-02T06:50:58;5.10;99.90
32811;DHT22;65470;47.324;8.548;2023-03-02T06:53:24;5.10;99.90
32811;DHT22;65470;47.324;8.548;2023-03-02T06:55:50;5.10;99.90
32811;DHT22;65470;47.324;8.548;2023-03-02T06:58:16;5.10;99.90
32811;DHT22;65470;47.324;8.548;2023-03-02T07:00:41;5.10;99.90
32811;DHT22;65470;47.324;8.548;2023-03-02T07:03:07;5.20;99.90
32811;DHT22;65470;47.324;8.548;2023-03-02T07:05:32;5.20;99.90
32811;DHT22;65470;47.324;8.548;2023-03-02T07:08:00;5.20;99.90
32811;DHT22;65470;47.324;8.548;2023-03-02T07:10:26;5.20;99.90
32811;DHT22;65470;47.324;8.548;2023-03-02T07:12:52;5.30;99.90
32811;DHT22;65470;47.324;8.548;2023-03-02T07:15:18;5.40;99.90
32811;DHT22;65470;47.324;8.548;2023-03-02T07:17:44;5.40;99.90
32811;DHT22;65470;47.324;8.548;2023-03-02T07:20:12;5.40;99.90
32811;DHT22;65470;47.324;8.548;2023-03-02T07:22:38;5.40;99.90
32811;DHT22;65470;47.324;8.548;2023-03-02T07:25:04;5.40;99.90
32811;DHT22;65470;47.324;8.548;2023-03-02T07:27:30;5.40;99.90
32811;DHT22;65470;47.324;8.548;2023-03-02T07:29:56;5.40;99.90
32811;DHT22;65470;47.324;8.548;2023-03-02T07:32:21;5.40;99.90
32811;DHT22;65470;47.324;8.548;2023-03-02T07:34:47;5.50;99.90
32811;DHT22;65470;47.324;8.548;2023-03-02T07:37:12;5.60;99.90
32811;DHT22;65470;47.324;8.548;2023-03-02T07:39:38;5.60;99.90
32811;DHT22;65470;47.324;8.548;2023-03-02T07:42:04;5.60;99.90
32811;DHT22;65470;47.324;8.548;2023-03-02T07:44:32;5.60;99.90
32811;DHT22;65470;47.324;8.548;2023-03-02T07:46:57;5.70;99.90
32811;DHT22;65470;47.324;8.548;2023-03-02T07:49:23;5.70;99.90
32811;DHT22;65470;47.324;8.548;2023-03-02T07:51:48;5.80;99.90
32811;DHT22;65470;47.324;8.548;2023-03-02T07:54:14;5.70;99.90
32811;DHT22;65470;47.324;8.548;2023-03-02T07:56:40;5.90;99.90
32811;DHT22;65470;47.324;8.548;2023-03-02T07:59:05;6.00;99.90
32811;DHT22;65470;47.324;8.548;2023-03-02T08:01:31;6.00;99.90
32811;DHT22;65470;47.324;8.548;2023-03-02T08:03:57;6.10;99.90
32811;DHT22;65470;47.324;8.548;2023-03-02T08:06:22;6.20;99.90
32811;DHT22;65470;47.324;8.548;2023-03-02T08:08:48;6.20;99.90
32811;DHT22;65470;47.324;8.548;2023-03-02T08:11:16;6.30;99.90
32811;DHT22;65470;47.324;8.548;2023-03-02T08:13:42;6.30;99.90
32811;DHT22;65470;47.324;8.548;2023-03-02T08:16:10;6.30;99.90
32811;DHT22;65470;47.324;8.548;2023-03-02T08:18:37;6.40;99.90
32811;DHT22;65470;47.324;8.548;2023-03-02T08:21:04;6.40;99.90
32811;DHT22;65470;47.324;8.548;2023-03-02T08:23:35;6.40;99.90
32811;DHT22;65470;47.324;8.548;2023-03-02T08:26:01;6.40;99.90
32811;DHT22;65470;47.324;8.548;2023-03-02T08:28:27;6.40;99.90
32811;DHT22;65470;47.324;8.548;2023-03-02T08:30:57;6.50;99.90
32811;DHT22;65470;47.324;8.548;2023-03-02T08:33:23;6.50;99.90
32811;DHT22;65470;47.324;8.548;2023-03-02T08:36:07;6.60;99.90
32811;DHT22;65470;47.324;8.548;2023-03-02T08:38:34;6.60;99.90
32811;DHT22;65470;47.324;8.548;2023-03-02T08:41:04;6.70;99.90
32811;DHT22;65470;47.324;8.548;2023-03-02T08:43:33;6.70;99.90
32811;DHT22;65470;47.324;8.548;2023-03-02T08:46:00;6.60;99.90
32811;DHT22;65470;47.324;8.548;2023-03-02T08:48:26;6.60;99.90
32811;DHT22;65470;47.324;8.548;2023-03-02T08:51:04;6.60;99.90
32811;DHT22;65470;47.324;8.548;2023-03-02T08:53:33;6.60;99.90
32811;DHT22;65470;47.324;8.548;2023-03-02T08:55:59;6.60;99.90
32811;DHT22;65470;47.324;8.548;2023-03-02T08:58:25;6.70;99.90
32811;DHT22;65470;47.324;8.548;2023-03-02T09:00:50;6.70;99.90
32811;DHT22;65470;47.324;8.548;2023-03-02T09:03:16;6.70;99.90
32811;DHT22;65470;47.324;8.548;2023-03-02T09:05:42;6.80;99.90
32811;DHT22;65470;47.324;8.548;2023-03-02T09:08:08;6.90;99.90
32811;DHT22;65470;47.324;8.548;2023-03-02T09:10:34;6.90;99.90
32811;DHT22;65470;47.324;8.548;2023-03-02T09:13:00;6.70;99.90
32811;DHT22;65470;47.324;8.548;2023-03-02T09:15:25;6.70;99.90
32811;DHT22;65470;47.324;8.548;2023-03-02T09:17:51;6.70;99.90
32811;DHT22;65470;47.324;8.548;2023-03-02T09:20:17;6.90;99.90
32811;DHT22;65470;47.324;8.548;2023-03-02T09:22:42;7.00;99.90
32811;DHT22;65470;47.324;8.548;2023-03-02T09:25:13;7.00;99.90
32811;DHT22;65470;47.324;8.548;2023-03-02T09:27:40;6.90;99.90
32811;DHT22;65470;47.324;8.548;2023-03-02T09:30:07;6.90;99.90
32811;DHT22;65470;47.324;8.548;2023-03-02T09:32:33;7.00;99.90
32811;DHT22;65470;47.324;8.548;2023-03-02T09:34:59;7.00;99.90
32811;DHT22;65470;47.324;8.548;2023-03-02T09:37:26;7.10;99.90
32811;DHT22;65470;47.324;8.548;2023-03-02T09:39:52;7.10;99.90
32811;DHT22;65470;47.324;8.548;2023-03-02T09:50:40;7.20;99.90
32811;DHT22;65470;47.324;8.548;2023-03-02T09:55:58;7.30;99.90
32811;DHT22;65470;47.324;8.548;2023-03-02T09:58:38;7.30;99.90
32811;DHT22;65470;47.324;8.548;2023-03-02T10:01:15;7.30;99.90
32811;DHT22;65470;47.324;8.548;2023-03-02T10:03:55;7.40;99.90
32811;DHT22;65470;47.324;8.548;2023-03-02T10:06:22;7.50;99.90
32811;DHT22;65470;47.324;8.548;2023-03-02T10:08:47;7.70;99.90
32811;DHT22;65470;47.324;8.548;2023-03-02T10:11:30;7.80;99.90
32811;DHT22;65470;47.324;8.548;2023-03-02T10:14:04;7.90;99.90
32811;DHT22;65470;47.324;8.548;2023-03-02T10:19:11;7.70;99.90
32811;DHT22;65470;47.324;8.548;2023-03-02T10:21:44;7.70;99.90
32811;DHT22;65470;47.324;8.548;2023-03-02T10:34:35;7.70;99.90
32811;DHT22;65470;47.324;8.548;2023-03-02T10:37:12;7.80;99.90
32811;DHT22;65470;47.324;8.548;2023-03-02T10:39:38;7.80;99.90
32811;DHT22;65470;47.324;8.548;2023-03-02T10:42:06;7.90;99.90
32811;DHT22;65470;47.324;8.548;2023-03-02T10:44:47;7.90;99.90
32811;DHT22;65470;47.324;8.548;2023-03-02T10:47:27;7.90;99.90
32811;DHT22;65470;47.324;8.548;2023-03-02T10:49:54;7.90;99.90
32811;DHT22;65470;47.324;8.548;2023-03-02T10:52:26;8.00;99.90
32811;DHT22;65470;47.324;8.548;2023-03-02T10:55:12;8.00;99.90
32811;DHT22;65470;47.324;8.548;2023-03-02T10:57:40;8.20;99.90
32811;DHT22;65470;47.324;8.548;2023-03-02T11:00:26;8.20;99.90
32811;DHT22;65470;47.324;8.548;2023-03-02T11:05:20;8.40;99.90
32811;DHT22;65470;47.324;8.548;2023-03-02T11:08:03;8.60;98.90
32811;DHT22;65470;47.324;8.548;2023-03-02T11:10:35;8.60;98.90
32811;DHT22;65470;47.324;8.548;2023-03-02T11:13:16;8.70;98.20
32811;DHT22;65470;47.324;8.548;2023-03-02T11:21:21;8.50;97.60
32811;DHT22;65470;47.324;8.548;2023-03-02T11:23:52;8.50;98.20
32811;DHT22;65470;47.324;8.548;2023-03-02T11:26:30;8.40;98.30
32811;DHT22;65470;47.324;8.548;2023-03-02T11:29:09;8.30;99.30
32811;DHT22;65470;47.324;8.548;2023-03-02T11:31:49;8.30;99.40
32811;DHT22;65470;47.324;8.548;2023-03-02T11:37:19;8.60;97.70
32811;DHT22;65470;47.324;8.548;2023-03-02T11:42:19;8.50;98.70
32811;DHT22;65470;47.324;8.548;2023-03-02T11:44:48;8.60;97.60
32811;DHT22;65470;47.324;8.548;2023-03-02T11:47:15;8.50;97.60
32811;DHT22;65470;47.324;8.548;2023-03-02T11:49:46;8.50;99.10
32811;DHT22;65470;47.324;8.548;2023-03-02T11:52:20;8.40;97.90
32811;DHT22;65470;47.324;8.548;2023-03-02T11:54:57;8.40;98.30
32811;DHT22;65470;47.324;8.548;2023-03-02T11:57:38;8.30;98.00
32811;DHT22;65470;47.324;8.548;2023-03-02T12:00:34;8.60;97.60
32811;DHT22;65470;47.324;8.548;2023-03-02T12:05:43;8.60;96.90
32811;DHT22;65470;47.324;8.548;2023-03-02T12:11:05;8.60;97.10
32811;DHT22;65470;47.324;8.548;2023-03-02T12:13:36;8.70;97.70
32811;DHT22;65470;47.324;8.548;2023-03-02T12:16:15;8.70;98.70
32811;DHT22;65470;47.324;8.548;2023-03-02T12:18:48;8.80;96.80
32811;DHT22;65470;47.324;8.548;2023-03-02T12:21:16;8.80;96.30
32811;DHT22;65470;47.324;8.548;2023-03-02T12:31:26;9.10;95.00
32811;DHT22;65470;47.324;8.548;2023-03-02T12:33:52;9.10;95.00
32811;DHT22;65470;47.324;8.548;2023-03-02T12:36:40;9.00;95.20
32811;DHT22;65470;47.324;8.548;2023-03-02T12:45:14;9.20;95.30
32811;DHT22;65470;47.324;8.548;2023-03-02T12:47:48;9.10;96.60
32811;DHT22;65470;47.324;8.548;2023-03-02T12:50:19;9.20;96.30
32811;DHT22;65470;47.324;8.548;2023-03-02T12:52:57;9.20;95.90
32811;DHT22;65470;47.324;8.548;2023-03-02T12:55:23;9.10;96.00
32811;DHT22;65470;47.324;8.548;2023-03-02T12:57:52;9.20;96.10
32811;DHT22;65470;47.324;8.548;2023-03-02T13:00:23;9.20;95.40
32811;DHT22;65470;47.324;8.548;2023-03-02T13:02:52;9.20;96.00
32811;DHT22;65470;47.324;8.548;2023-03-02T13:05:22;9.30;96.50
32811;DHT22;65470;47.324;8.548;2023-03-02T13:08:03;9.30;95.60
32811;DHT22;65470;47.324;8.548;2023-03-02T13:10:36;9.40;95.50
32811;DHT22;65470;47.324;8.548;2023-03-02T13:13:26;9.40;95.60
32811;DHT22;65470;47.324;8.548;2023-03-02T13:15:55;9.40;95.30
32811;DHT22;65470;47.324;8.548;2023-03-02T13:18:23;9.50;96.10
32811;DHT22;65470;47.324;8.548;2023-03-02T13:20:50;9.60;95.60
32811;DHT22;65470;47.324;8.548;2023-03-02T13:23:17;9.60;94.90
32811;DHT22;65470;47.324;8.548;2023-03-02T13:25:55;9.40;94.80
32811;DHT22;65470;47.324;8.548;2023-03-02T13:28:31;9.50;95.50
32811;DHT22;65470;47.324;8.548;2023-03-02T13:31:13;9.60;95.40
32811;DHT22;65470;47.324;8.548;2023-03-02T13:33:46;9.60;95.40
32811;DHT22;65470;47.324;8.548;2023-03-02T13:36:33;9.70;94.70
32811;DHT22;65470;47.324;8.548;2023-03-02T13:39:00;9.70;94.40
32811;DHT22;65470;47.324;8.548;2023-03-02T13:41:32;9.60;94.30
32811;DHT22;65470;47.324;8.548;2023-03-02T13:43:58;9.40;95.00
32811;DHT22;65470;47.324;8.548;2023-03-02T13:46:35;9.20;95.00
32811;DHT22;65470;47.324;8.548;2023-03-02T13:49:05;9.10;95.60
32811;DHT22;65470;47.324;8.548;2023-03-02T13:51:39;9.20;95.80
32811;DHT22;65470;47.324;8.548;2023-03-02T13:54:20;9.30;94.80
32811;DHT22;65470;47.324;8.548;2023-03-02T13:56:47;9.20;95.10
32811;DHT22;65470;47.324;8.548;2023-03-02T13:59:15;9.20;95.30
32811;DHT22;65470;47.324;8.548;2023-03-02T14:01:42;9.10;96.00
32811;DHT22;65470;47.324;8.548;2023-03-02T14:04:19;9.10;94.90
32811;DHT22;65470;47.324;8.548;2023-03-02T14:06:48;9.10;94.90
32811;DHT22;65470;47.324;8.548;2023-03-02T14:09:14;9.10;95.30
32811;DHT22;65470;47.324;8.548;2023-03-02T14:11:42;9.10;95.60
32811;DHT22;65470;47.324;8.548;2023-03-02T14:14:22;9.30;95.40
32811;DHT22;65470;47.324;8.548;2023-03-02T14:16:48;9.40;94.80
32811;DHT22;65470;47.324;8.548;2023-03-02T14:19:14;9.30;95.10
32811;DHT22;65470;47.324;8.548;2023-03-02T14:21:43;9.30;95.20
32811;DHT22;65470;47.324;8.548;2023-03-02T14:24:10;9.30;95.60
32811;DHT22;65470;47.324;8.548;2023-03-02T14:26:41;9.30;95.60
32811;DHT22;65470;47.324;8.548;2023-03-02T14:29:23;9.30;95.40
32811;DHT22;65470;47.324;8.548;2023-03-02T14:31:50;9.20;95.30
32811;DHT22;65470;47.324;8.548;2023-03-02T14:34:16;9.10;96.30
32811;DHT22;65470;47.324;8.548;2023-03-02T14:36:50;9.10;96.40
32811;DHT22;65470;47.324;8.548;2023-03-02T14:39:34;9.10;96.50
32811;DHT22;65470;47.324;8.548;2023-03-02T14:42:00;9.10;96.30
32811;DHT22;65470;47.324;8.548;2023-03-02T14:44:26;9.10;96.70
32811;DHT22;65470;47.324;8.548;2023-03-02T14:46:52;9.10;97.50
32811;DHT22;65470;47.324;8.548;2023-03-02T14:49:18;9.10;96.40
32811;DHT22;65470;47.324;8.548;2023-03-02T14:51:53;9.20;97.20
32811;DHT22;65470;47.324;8.548;2023-03-02T14:54:20;9.20;96.60
32811;DHT22;65470;47.324;8.548;2023-03-02T14:56:46;9.20;96.30
32811;DHT22;65470;47.324;8.548;2023-03-02T14:59:13;9.20;95.90
32811;DHT22;65470;47.324;8.548;2023-03-02T15:01:39;9.20;95.90
32811;DHT22;65470;47.324;8.548;2023-03-02T15:04:05;9.10;96.40
32811;DHT22;65470;47.324;8.548;2023-03-02T15:06:33;9.00;96.40
32811;DHT22;65470;47.324;8.548;2023-03-02T15:09:00;9.00;96.40
32811;DHT22;65470;47.324;8.548;2023-03-02T15:11:27;9.00;96.60
32811;DHT22;65470;47.324;8.548;2023-03-02T15:13:53;8.90;96.60
32811;DHT22;65470;47.324;8.548;2023-03-02T15:16:19;8.80;96.60
32811;DHT22;65470;47.324;8.548;2023-03-02T15:18:50;8.70;97.00
32811;DHT22;65470;47.324;8.548;2023-03-02T15:21:20;8.70;97.10
32811;DHT22;65470;47.324;8.548;2023-03-02T15:23:46;8.60;97.50
32811;DHT22;65470;47.324;8.548;2023-03-02T15:26:12;8.40;98.30
32811;DHT22;65470;47.324;8.548;2023-03-02T15:28:38;8.40;98.40
32811;DHT22;65470;47.324;8.548;2023-03-02T15:31:09;8.40;98.50
32811;DHT22;65470;47.324;8.548;2023-03-02T15:33:35;8.40;98.10
32811;DHT22;65470;47.324;8.548;2023-03-02T15:36:01;8.40;98.30
32811;DHT22;65470;47.324;8.548;2023-03-02T15:38:26;8.30;98.20
32811;DHT22;65470;47.324;8.548;2023-03-02T15:40:52;8.30;98.50
32811;DHT22;65470;47.324;8.548;2023-03-02T15:43:18;8.20;98.70
32811;DHT22;65470;47.324;8.548;2023-03-02T15:45:45;8.10;99.10
32811;DHT22;65470;47.324;8.548;2023-03-02T15:48:11;8.10;99.10
32811;DHT22;65470;47.324;8.548;2023-03-02T15:50:37;8.10;99.80
32811;DHT22;65470;47.324;8.548;2023-03-02T15:53:03;8.20;99.80
32811;DHT22;65470;47.324;8.548;2023-03-02T15:55:29;8.20;99.30
32811;DHT22;65470;47.324;8.548;2023-03-02T15:57:54;8.10;99.60
32811;DHT22;65470;47.324;8.548;2023-03-02T16:00:23;8.20;99.30
32811;DHT22;65470;47.324;8.548;2023-03-02T16:02:48;8.20;99.90
32811;DHT22;65470;47.324;8.548;2023-03-02T16:05:14;8.10;99.90
32811;DHT22;65470;47.324;8.548;2023-03-02T16:07:40;8.10;99.90
32811;DHT22;65470;47.324;8.548;2023-03-02T16:10:07;8.10;99.90
32811;DHT22;65470;47.324;8.548;2023-03-02T16:12:34;8.10;99.80
32811;DHT22;65470;47.324;8.548;2023-03-02T16:15:00;8.00;99.90
32811;DHT22;65470;47.324;8.548;2023-03-02T16:17:25;7.70;99.90
32811;DHT22;65470;47.324;8.548;2023-03-02T16:19:51;7.60;99.90
32811;DHT22;65470;47.324;8.548;2023-03-02T16:22:17;7.60;99.90
32811;DHT22;65470;47.324;8.548;2023-03-02T16:24:42;7.50;99.90
32811;DHT22;65470;47.324;8.548;2023-03-02T16:27:08;7.50;99.90
32811;DHT22;65470;47.324;8.548;2023-03-02T16:29:34;7.30;99.90
32811;DHT22;65470;47.324;8.548;2023-03-02T16:31:59;7.30;99.90
32811;DHT22;65470;47.324;8.548;2023-03-02T16:34:25;7.20;99.90
32811;DHT22;65470;47.324;8.548;2023-03-02T16:36:51;7.10;99.90
32811;DHT22;65470;47.324;8.548;2023-03-02T16:39:16;7.00;99.90
32811;DHT22;65470;47.324;8.548;2023-03-02T16:41:43;6.90;99.90
32811;DHT22;65470;47.324;8.548;2023-03-02T16:44:11;6.70;99.90
32811;DHT22;65470;47.324;8.548;2023-03-02T16:46:38;6.60;99.90
32811;DHT22;65470;47.324;8.548;2023-03-02T16:49:06;6.50;99.90
32811;DHT22;65470;47.324;8.548;2023-03-02T16:51:32;6.40;99.90
32811;DHT22;65470;47.324;8.548;2023-03-02T16:53:57;6.30;99.90
32811;DHT22;65470;47.324;8.548;2023-03-02T16:56:23;6.20;99.90
32811;DHT22;65470;47.324;8.548;2023-03-02T16:58:49;6.10;99.90